createdAt,value
2019-04-10T00:00:02.448Z,1.24
2019-04-10T00:02:39.926Z,1.20
2019-04-10T00:05:17.977Z,1.20
2019-04-10T00:07:55.681Z,1.19
2019-04-10T00:10:38.318Z,1.25
2019-04-10T00:13:18.514Z,-0.03
2019-04-10T00:15:53.298Z,1.25
2019-04-10T00:18:29.830Z,1.10
2019-04-10T00:21:05.062Z,1.11
2019-04-10T00:23:42.049Z,1.20
2019-04-10T00:26:18.105Z,1.22
2019-04-10T00:28:56.060Z,1.16
2019-04-10T00:31:38.140Z,1.19
2019-04-10T00:34:17.714Z,1.08
2019-04-10T00:36:51.383Z,1.10
2019-04-10T00:39:26.482Z,1.07
2019-04-10T00:42:05.062Z,1.10
2019-04-10T00:44:42.467Z,1.13
2019-04-10T00:47:19.117Z,1.24
2019-04-10T00:49:55.833Z,1.27
2019-04-10T00:52:32.334Z,1.29
2019-04-10T00:55:11.240Z,1.33
2019-04-10T00:57:48.506Z,1.34
2019-04-10T01:00:21.993Z,1.39
2019-04-10T01:03:02.007Z,1.35
2019-04-10T01:05:40.364Z,1.34
2019-04-10T01:08:18.166Z,1.44
2019-04-10T01:10:54.751Z,1.47
2019-04-10T01:13:31.144Z,1.52
2019-04-10T01:16:16.249Z,1.52
2019-04-10T01:18:57.944Z,1.52
2019-04-10T01:21:32.746Z,1.48
2019-04-10T01:24:11.150Z,1.47
2019-04-10T01:26:45.513Z,1.51
2019-04-10T01:29:23.036Z,1.53
2019-04-10T01:31:59.557Z,1.47
2019-04-10T01:34:38.935Z,1.47
2019-04-10T01:37:14.034Z,1.50
2019-04-10T01:39:52.841Z,1.56
2019-04-10T01:42:28.307Z,1.59
2019-04-10T01:45:05.385Z,1.56
2019-04-10T01:47:43.497Z,1.45
2019-04-10T01:50:18.653Z,1.46
2019-04-10T01:52:58.168Z,1.50
2019-04-10T01:55:35.752Z,1.45
2019-04-10T01:58:17.567Z,1.37
2019-04-10T02:00:56.695Z,1.50
2019-04-10T02:03:29.900Z,1.40
2019-04-10T02:06:07.249Z,1.50
2019-04-10T02:08:43.990Z,1.36
2019-04-10T02:11:18.588Z,1.31
2019-04-10T02:13:53.994Z,1.36
2019-04-10T02:16:30.565Z,1.41
2019-04-10T02:19:10.032Z,1.46
2019-04-10T02:21:46.392Z,1.53
2019-04-10T02:24:23.627Z,1.37
2019-04-10T02:27:06.429Z,1.33
2019-04-10T02:29:42.670Z,1.19
2019-04-10T02:32:21.017Z,1.29
2019-04-10T02:34:57.445Z,1.40
2019-04-10T02:37:35.106Z,1.42
2019-04-10T02:40:16.951Z,1.32
2019-04-10T02:42:51.579Z,1.30
2019-04-10T02:45:25.859Z,1.36
2019-04-10T02:48:03.783Z,1.37
2019-04-10T02:50:43.009Z,1.39
2019-04-10T02:53:16.001Z,1.43
2019-04-10T02:55:53.685Z,1.42
2019-04-10T02:58:32.262Z,1.27
2019-04-10T03:01:15.669Z,1.17
2019-04-10T03:03:56.800Z,1.31
2019-04-10T03:06:35.479Z,1.37
2019-04-10T03:09:30.799Z,1.38
2019-04-10T03:11:51.859Z,1.32
2019-04-10T03:14:28.473Z,1.36
2019-04-10T03:17:02.015Z,1.37
2019-04-10T03:19:37.738Z,1.29
2019-04-10T03:22:12.368Z,1.32
2019-04-10T03:24:52.863Z,1.45
2019-04-10T03:27:26.640Z,1.41
2019-04-10T03:30:05.965Z,1.48
2019-04-10T03:33:03.879Z,1.48
2019-04-10T03:35:38.806Z,1.30
2019-04-10T03:38:18.183Z,1.32
2019-04-10T03:40:55.566Z,1.47
2019-04-10T03:43:32.203Z,1.48
2019-04-10T03:46:10.938Z,1.39
2019-04-10T03:48:47.352Z,1.40
2019-04-10T03:51:20.611Z,1.45
2019-04-10T03:53:59.638Z,1.45
2019-04-10T03:56:36.559Z,1.30
2019-04-10T03:59:13.827Z,1.25
2019-04-10T04:01:45.174Z,1.34
2019-04-10T04:04:22.416Z,1.39
2019-04-10T04:06:59.877Z,1.41
2019-04-10T04:09:36.323Z,1.29
2019-04-10T04:12:13.324Z,1.41
2019-04-10T04:14:49.558Z,1.37
2019-04-10T04:17:26.277Z,1.32
2019-04-10T04:20:04.340Z,1.32
2019-04-10T04:22:46.083Z,1.17
2019-04-10T04:25:19.453Z,1.03
2019-04-10T04:27:55.137Z,1.06
2019-04-10T04:30:30.022Z,0.90
2019-04-10T04:33:03.314Z,1.07
2019-04-10T04:35:41.572Z,1.10
2019-04-10T04:38:20.003Z,1.01
2019-04-10T04:40:55.550Z,0.80
2019-04-10T04:43:28.491Z,0.86
2019-04-10T04:46:12.033Z,0.94
2019-04-10T04:48:47.441Z,0.90
2019-04-10T04:51:21.946Z,1.01
2019-04-10T04:53:56.929Z,0.92
2019-04-10T04:56:31.612Z,0.97
2019-04-10T04:59:03.609Z,0.90
2019-04-10T05:01:34.392Z,0.98
2019-04-10T05:04:06.793Z,0.82
2019-04-10T05:06:37.820Z,0.95
2019-04-10T05:09:11.260Z,1.02
2019-04-10T05:11:42.683Z,0.05
2019-04-10T05:14:15.405Z,1.02
2019-04-10T05:16:47.808Z,0.95
2019-04-10T05:19:21.618Z,0.86
2019-04-10T05:21:54.339Z,0.88
2019-04-10T05:24:27.847Z,1.05
2019-04-10T05:26:59.264Z,1.00
2019-04-10T05:29:31.161Z,1.14
2019-04-10T05:32:02.338Z,1.16
2019-04-10T05:34:33.840Z,1.16
2019-04-10T05:37:05.269Z,1.24
2019-04-10T05:39:45.203Z,1.09
2019-04-10T05:42:08.916Z,1.23
2019-04-10T05:44:40.198Z,1.11
2019-04-10T05:47:11.742Z,1.30
2019-04-10T05:49:42.667Z,1.26
2019-04-10T05:52:13.459Z,1.04
2019-04-10T05:54:44.136Z,1.06
2019-04-10T05:57:15.655Z,1.28
2019-04-10T05:59:48.036Z,1.25
2019-04-10T06:02:18.353Z,1.23
2019-04-10T06:04:49.642Z,1.13
2019-04-10T06:07:21.149Z,1.05
2019-04-10T06:09:55.839Z,1.06
2019-04-10T06:12:24.414Z,1.17
2019-04-10T06:14:55.238Z,0.99
2019-04-10T06:17:26.806Z,1.10
2019-04-10T06:19:58.652Z,1.11
2019-04-10T06:22:30.405Z,1.00
2019-04-10T06:25:03.667Z,0.91
2019-04-10T06:27:34.710Z,0.99
2019-04-10T06:30:05.973Z,0.97
2019-04-10T06:32:37.606Z,1.04
2019-04-10T06:35:08.801Z,1.15
2019-04-10T06:37:40.065Z,1.23
2019-04-10T06:40:18.640Z,1.20
2019-04-10T06:42:49.841Z,1.31
2019-04-10T06:45:16.348Z,1.16
2019-04-10T06:47:47.092Z,1.28
2019-04-10T06:50:18.901Z,1.14
2019-04-10T06:52:51.354Z,1.19
2019-04-10T06:55:23.386Z,1.31
2019-04-10T06:57:57.669Z,1.40
2019-04-10T07:00:27.097Z,1.44
2019-04-10T07:02:57.571Z,1.25
2019-04-10T07:05:37.975Z,1.25
2019-04-10T07:08:10.833Z,1.36
2019-04-10T07:10:45.390Z,1.35
2019-04-10T07:13:10.063Z,1.21
2019-04-10T07:15:42.207Z,1.31
2019-04-10T07:18:15.303Z,1.23
2019-04-10T07:20:44.170Z,1.17
2019-04-10T07:23:23.416Z,1.23
2019-04-10T07:25:49.982Z,1.21
2019-04-10T07:28:21.531Z,1.18
2019-04-10T07:30:56.832Z,1.40
2019-04-10T07:33:25.074Z,1.55
2019-04-10T07:35:56.601Z,1.52
2019-04-10T07:38:27.792Z,1.61
2019-04-10T07:40:58.946Z,1.69
2019-04-10T07:43:30.636Z,1.70
2019-04-10T07:46:01.527Z,1.72
2019-04-10T07:48:33.450Z,1.79
2019-04-10T07:51:04.883Z,1.65
2019-04-10T07:53:35.712Z,1.60
2019-04-10T07:56:10.826Z,1.69
2019-04-10T07:58:39.975Z,1.73
2019-04-10T08:01:11.809Z,1.86
2019-04-10T08:03:43.752Z,1.92
2019-04-10T08:06:15.733Z,1.69
2019-04-10T08:08:46.854Z,1.75
2019-04-10T08:11:17.666Z,1.54
2019-04-10T08:13:49.232Z,1.42
2019-04-10T08:16:21.012Z,1.53
2019-04-10T08:18:54.121Z,1.43
2019-04-10T08:21:24.684Z,1.47
2019-04-10T08:23:55.540Z,1.53
2019-04-10T08:26:26.409Z,1.55
2019-04-10T08:28:57.272Z,1.53
2019-04-10T08:31:28.754Z,1.63
2019-04-10T08:34:01.032Z,1.62
2019-04-10T08:36:32.139Z,1.51
2019-04-10T08:39:06.702Z,1.65
2019-04-10T08:41:37.569Z,1.60
2019-04-10T08:44:08.583Z,1.47
2019-04-10T08:46:39.558Z,1.35
2019-04-10T08:49:10.272Z,1.54
2019-04-10T08:51:41.603Z,1.54
2019-04-10T08:54:12.180Z,1.34
2019-04-10T08:56:42.854Z,1.35
2019-04-10T08:59:13.831Z,1.52
2019-04-10T09:01:45.250Z,1.58
2019-04-10T09:04:15.539Z,1.62
2019-04-10T09:06:45.771Z,1.41
2019-04-10T09:09:15.947Z,1.60
2019-04-10T09:11:46.188Z,1.56
2019-04-10T09:14:17.048Z,1.43
2019-04-10T09:16:47.283Z,1.52
2019-04-10T09:19:18.908Z,1.62
2019-04-10T09:21:49.880Z,1.41
2019-04-10T09:24:20.140Z,1.39
2019-04-10T09:26:50.798Z,1.29
2019-04-10T09:29:23.213Z,1.35
2019-04-10T09:31:53.763Z,1.38
2019-04-10T09:34:24.008Z,1.45
2019-04-10T09:36:54.168Z,1.41
2019-04-10T09:39:25.974Z,1.43
2019-04-10T09:41:56.454Z,1.66
2019-04-10T09:44:27.777Z,1.71
2019-04-10T09:46:58.036Z,1.70
2019-04-10T09:49:35.640Z,1.79
2019-04-10T09:52:00.698Z,1.81
2019-04-10T09:54:31.573Z,1.91
2019-04-10T09:57:03.321Z,1.94
2019-04-10T09:59:36.963Z,1.78
2019-04-10T10:02:05.717Z,1.77
2019-04-10T10:04:35.957Z,1.89
2019-04-10T10:07:06.565Z,1.94
2019-04-10T10:09:36.781Z,2.04
2019-04-10T10:12:07.885Z,2.13
2019-04-10T10:14:38.152Z,1.92
2019-04-10T10:17:08.717Z,1.78
2019-04-10T10:19:39.298Z,1.94
2019-04-10T10:22:10.647Z,1.96
2019-04-10T10:24:40.799Z,1.89
2019-04-10T10:27:12.097Z,2.06
2019-04-10T10:29:44.535Z,2.08
2019-04-10T10:32:15.018Z,2.23
2019-04-10T10:34:45.275Z,2.05
2019-04-10T10:37:16.562Z,1.92
2019-04-10T10:39:47.231Z,2.06
2019-04-10T10:42:17.624Z,1.72
2019-04-10T10:44:48.134Z,1.87
2019-04-10T10:47:18.407Z,1.54
2019-04-10T10:49:48.770Z,1.63
2019-04-10T10:52:19.405Z,1.67
2019-04-10T10:54:49.671Z,1.71
2019-04-10T10:57:19.892Z,1.60
2019-04-10T10:59:50.077Z,1.83
2019-04-10T11:02:21.257Z,1.89
2019-04-10T11:04:51.751Z,1.92
2019-04-10T11:07:22.726Z,1.91
2019-04-10T11:09:53.054Z,1.93
2019-04-10T11:12:24.166Z,2.04
2019-04-10T11:14:54.455Z,2.09
2019-04-10T11:17:25.818Z,1.98
2019-04-10T11:19:56.237Z,1.89
2019-04-10T11:22:26.644Z,1.98
2019-04-10T11:24:57.547Z,1.98
2019-04-10T11:27:29.433Z,1.97
2019-04-10T11:30:01.484Z,2.13
2019-04-10T11:32:33.941Z,2.16
2019-04-10T11:35:04.616Z,2.17
2019-04-10T11:37:43.832Z,2.10
2019-04-10T11:40:08.923Z,2.01
2019-04-10T11:42:39.970Z,2.08
2019-04-10T11:45:14.399Z,2.16
2019-04-10T11:47:44.923Z,2.12
2019-04-10T11:50:18.374Z,2.12
2019-04-10T11:52:52.345Z,2.14
2019-04-10T11:55:24.057Z,2.08
2019-04-10T11:57:51.886Z,1.95
2019-04-10T12:00:45.332Z,1.88
2019-04-10T12:03:10.677Z,2.07
2019-04-10T12:05:42.294Z,2.02
2019-04-10T12:08:40.272Z,2.04
2019-04-10T12:13:19.188Z,1.99
2019-04-10T12:15:48.836Z,1.92
2019-04-10T12:18:19.046Z,1.96
2019-04-10T12:20:51.256Z,1.93
2019-04-10T12:23:23.022Z,2.07
2019-04-10T12:25:53.652Z,2.04
2019-04-10T12:28:24.107Z,2.11
2019-04-10T12:30:55.385Z,2.11
2019-04-10T12:33:25.608Z,2.14
2019-04-10T12:35:56.173Z,2.16
2019-04-10T12:38:26.424Z,1.97
2019-04-10T12:40:57.716Z,1.91
2019-04-10T12:43:29.189Z,1.88
2019-04-10T12:46:00.293Z,1.97
2019-04-10T12:48:30.760Z,1.94
2019-04-10T12:51:01.362Z,1.90
2019-04-10T12:53:31.769Z,1.77
2019-04-10T12:56:02.078Z,1.95
2019-04-10T12:58:32.948Z,2.05
2019-04-10T13:01:04.590Z,2.02
2019-04-10T13:03:35.518Z,2.00
2019-04-10T13:06:07.504Z,1.84
2019-04-10T13:08:54.809Z,1.62
2019-04-10T13:11:10.625Z,1.69
2019-04-10T13:13:40.827Z,1.83
2019-04-10T13:16:11.992Z,1.95
2019-04-10T13:18:42.819Z,1.88
2019-04-10T13:21:13.191Z,1.97
2019-04-10T13:23:43.391Z,2.08
2019-04-10T13:26:13.742Z,2.06
2019-04-10T13:28:47.639Z,2.15
2019-04-10T13:31:17.824Z,2.08
2019-04-10T13:33:49.003Z,2.07
2019-04-10T13:36:21.788Z,2.20
2019-04-10T13:38:52.652Z,1.96
2019-04-10T13:41:24.083Z,2.04
2019-04-10T13:43:56.176Z,1.97
2019-04-10T13:46:26.866Z,1.86
2019-04-10T13:48:57.680Z,1.77
2019-04-10T13:51:27.956Z,1.64
2019-04-10T13:53:58.894Z,1.77
2019-04-10T13:56:29.074Z,1.89
2019-04-10T13:59:00.314Z,1.95
2019-04-10T14:01:31.998Z,1.92
2019-04-10T14:04:02.970Z,1.92
2019-04-10T14:06:33.922Z,1.83
2019-04-10T14:09:22.349Z,1.91
2019-04-10T14:11:39.574Z,1.81
2019-04-10T14:14:10.615Z,1.92
2019-04-10T14:16:41.194Z,1.98
2019-04-10T14:19:12.936Z,1.88
2019-04-10T14:21:43.327Z,1.89
2019-04-10T14:24:15.523Z,1.89
2019-04-10T14:27:09.199Z,1.98
2019-04-10T14:29:39.393Z,2.05
2019-04-10T14:32:13.283Z,2.10
2019-04-10T14:34:44.729Z,2.18
2019-04-10T14:37:16.655Z,1.94
2019-04-10T14:39:47.653Z,1.91
2019-04-10T14:42:18.318Z,1.79
2019-04-10T14:44:48.698Z,1.99
2019-04-10T14:47:19.206Z,1.97
2019-04-10T14:49:49.426Z,1.97
2019-04-10T14:52:19.585Z,1.79
2019-04-10T14:54:50.315Z,1.86
2019-04-10T14:57:20.974Z,1.88
2019-04-10T14:59:52.443Z,1.90
2019-04-10T15:02:24.354Z,1.68
2019-04-10T15:04:54.538Z,1.76
2019-04-10T15:07:24.748Z,1.80
2019-04-10T15:09:55.053Z,1.73
2019-04-10T15:12:25.249Z,1.81
2019-04-10T15:14:57.680Z,1.89
2019-04-10T15:17:28.679Z,1.86
2019-04-10T15:19:58.994Z,1.95
2019-04-10T15:22:29.193Z,1.99
2019-04-10T15:24:59.418Z,1.93
2019-04-10T15:27:29.674Z,1.90
2019-04-10T15:29:59.989Z,1.84
2019-04-10T15:32:30.122Z,1.84
2019-04-10T15:35:00.499Z,1.62
2019-04-10T15:37:31.284Z,1.46
2019-04-10T15:40:11.463Z,1.44
2019-04-10T15:42:34.304Z,1.40
2019-04-10T15:45:05.094Z,1.43
2019-04-10T15:47:35.348Z,1.53
2019-04-10T15:50:06.925Z,1.53
2019-04-10T15:52:37.586Z,1.56
2019-04-10T15:55:07.943Z,1.63
2019-04-10T15:57:50.030Z,1.50
2019-04-10T16:00:12.800Z,1.46
2019-04-10T16:02:44.813Z,1.51
2019-04-10T16:05:15.459Z,1.59
2019-04-10T16:07:48.916Z,1.60
2019-04-10T16:10:39.370Z,1.48
2019-04-10T16:13:24.124Z,1.43
2019-04-10T16:15:54.869Z,1.51
2019-04-10T16:18:25.902Z,1.31
2019-04-10T16:20:57.104Z,1.16
2019-04-10T16:23:33.526Z,1.19
2019-04-10T16:26:05.163Z,1.34
2019-04-10T16:28:35.565Z,1.30
2019-04-10T16:31:09.130Z,1.30
2019-04-10T16:33:39.590Z,1.28
2019-04-10T16:36:10.732Z,1.31
2019-04-10T16:38:42.875Z,0.97
2019-04-10T16:41:13.197Z,1.10
2019-04-10T16:43:45.147Z,1.16
2019-04-10T16:46:20.299Z,1.14
2019-04-10T16:48:52.561Z,1.02
2019-04-10T16:51:24.097Z,0.98
2019-04-10T16:53:54.420Z,0.90
2019-04-10T16:56:25.425Z,0.97
2019-04-10T16:58:58.369Z,0.89
2019-04-10T17:01:28.974Z,1.02
2019-04-10T17:04:04.911Z,0.91
2019-04-10T17:06:39.085Z,0.98
2019-04-10T17:09:22.801Z,0.98
2019-04-10T17:11:56.332Z,1.10
2019-04-10T17:14:29.337Z,1.01
2019-04-10T17:17:04.203Z,1.11
2019-04-10T17:19:46.503Z,1.09
2019-04-10T17:22:09.009Z,1.05
2019-04-10T17:24:40.045Z,0.92
2019-04-10T17:27:13.881Z,1.04
2019-04-10T17:29:45.924Z,1.03
2019-04-10T17:32:26.988Z,0.93
2019-04-10T17:35:05.407Z,0.96
2019-04-10T17:37:40.228Z,0.87
2019-04-10T17:40:30.008Z,0.72
2019-04-10T17:42:55.058Z,0.61
2019-04-10T17:45:30.880Z,0.53
2019-04-10T17:48:12.039Z,0.54
2019-04-10T17:50:49.831Z,0.38
2019-04-10T17:53:26.829Z,0.29
2019-04-10T17:56:00.049Z,0.29
2019-04-10T17:58:38.259Z,0.29
2019-04-10T18:01:18.820Z,0.37
2019-04-10T18:03:53.690Z,0.34
2019-04-10T18:06:27.696Z,0.38
2019-04-10T18:09:02.187Z,0.25
2019-04-10T18:11:35.610Z,0.27
2019-04-10T18:14:07.693Z,0.17
2019-04-10T18:16:38.304Z,0.08
2019-04-10T18:19:12.512Z,-0.01
2019-04-10T18:21:44.353Z,0.03
2019-04-10T18:24:18.217Z,-0.12
2019-04-10T18:26:53.422Z,-0.23
2019-04-10T18:29:23.297Z,-0.21
2019-04-10T18:31:57.369Z,-0.10
2019-04-10T18:34:30.225Z,-0.10
2019-04-10T18:37:09.302Z,-0.11
2019-04-10T18:39:43.013Z,-0.26
2019-04-10T18:42:19.488Z,-0.29
2019-04-10T18:44:55.888Z,-0.27
2019-04-10T18:47:27.388Z,-0.27
2019-04-10T18:49:58.037Z,-0.27
2019-04-10T18:52:28.261Z,-0.32
2019-04-10T18:54:58.564Z,-0.30
2019-04-10T18:57:30.495Z,-0.28
2019-04-10T19:00:18.815Z,-0.22
2019-04-10T19:03:10.842Z,-0.32
2019-04-10T19:05:50.667Z,-0.20
2019-04-10T19:08:24.106Z,-0.12
2019-04-10T19:11:10.622Z,-0.05
2019-04-10T19:13:35.674Z,-0.02
2019-04-10T19:16:09.023Z,0.04
2019-04-10T19:18:43.997Z,0.10
2019-04-10T19:21:17.804Z,0.16
2019-04-10T19:23:50.499Z,0.16
2019-04-10T19:26:23.209Z,0.17
2019-04-10T19:28:57.837Z,0.18
2019-04-10T19:31:29.961Z,0.19
2019-04-10T19:34:01.014Z,0.17
2019-04-10T19:36:32.962Z,0.18
2019-04-10T19:39:11.282Z,0.17
2019-04-10T19:41:44.821Z,0.17
2019-04-10T19:44:21.408Z,0.13
2019-04-10T19:46:57.699Z,0.09
2019-04-10T19:49:29.076Z,0.06
2019-04-10T19:52:00.195Z,0.02
2019-04-10T19:54:33.231Z,-0.03
2019-04-10T19:57:11.433Z,-0.11
2019-04-10T19:59:43.958Z,-0.20
2019-04-10T20:02:19.071Z,-0.28
2019-04-10T20:04:52.755Z,-0.37
2019-04-10T20:07:28.834Z,-0.45
2019-04-10T20:10:03.883Z,-0.52
2019-04-10T20:12:42.617Z,-0.56
2019-04-10T20:15:22.525Z,-0.62
2019-04-10T20:17:57.432Z,-0.69
2019-04-10T20:20:33.548Z,-0.74
2019-04-10T20:23:06.807Z,-0.81
2019-04-10T20:25:40.789Z,-0.87
2019-04-10T20:28:17.599Z,-0.90
2019-04-10T20:30:58.095Z,-0.89
2019-04-10T20:33:35.938Z,-0.89
2019-04-10T20:36:11.155Z,-0.91
2019-04-10T20:38:52.732Z,-0.96
2019-04-10T20:41:47.687Z,-0.95
2019-04-10T20:44:09.403Z,-0.98
2019-04-10T20:46:46.339Z,-1.00
2019-04-10T20:49:28.052Z,-1.03
2019-04-10T20:52:06.247Z,-1.06
2019-04-10T20:54:43.376Z,-1.09
2019-04-10T20:57:21.419Z,-1.10
2019-04-10T20:59:57.374Z,-1.14
2019-04-10T21:02:31.661Z,-1.17
2019-04-10T21:05:07.964Z,-1.20
2019-04-10T21:07:44.013Z,-1.25
2019-04-10T21:10:24.238Z,-1.29
2019-04-10T21:13:02.418Z,-1.36
2019-04-10T21:15:38.042Z,-1.42
2019-04-10T21:18:15.356Z,-1.44
2019-04-10T21:20:51.417Z,-1.53
2019-04-10T21:23:29.299Z,-1.61
2019-04-10T21:26:10.248Z,-1.69
2019-04-10T21:28:51.659Z,-1.70
2019-04-10T21:31:48.317Z,-1.81
2019-04-10T21:34:36.992Z,-1.88
2019-04-10T21:37:12.255Z,-1.87
2019-04-10T21:39:43.851Z,-1.85
2019-04-10T21:42:21.833Z,-1.85
2019-04-10T21:44:53.744Z,-1.85
2019-04-10T21:47:25.603Z,-1.84
2019-04-10T21:50:01.079Z,-1.81
2019-04-10T21:52:32.659Z,-1.81
2019-04-10T21:55:06.614Z,-1.78
2019-04-10T21:57:40.535Z,-1.84
2019-04-10T22:00:21.820Z,-1.85
2019-04-10T22:02:59.092Z,-1.83
2019-04-10T22:05:39.095Z,-1.81
2019-04-10T22:08:35.783Z,-1.76
2019-04-10T22:11:10.564Z,-1.83
2019-04-10T22:13:47.101Z,-1.82
2019-04-10T22:16:24.061Z,-1.80
2019-04-10T22:19:02.077Z,-1.73
2019-04-10T22:21:34.808Z,-1.77
2019-04-10T22:24:17.831Z,-1.73
2019-04-10T22:26:50.174Z,-1.77
2019-04-10T22:29:35.332Z,-1.73
2019-04-10T22:32:11.826Z,-1.64
2019-04-10T22:34:48.764Z,-1.56
2019-04-10T22:37:25.777Z,-1.46
2019-04-10T22:40:03.147Z,-1.41
2019-04-10T22:42:42.528Z,-1.42
2019-04-10T22:45:26.176Z,-1.46
2019-04-10T22:48:01.037Z,-1.49
2019-04-10T22:50:36.503Z,-1.48
2019-04-10T22:53:10.894Z,-1.50
2019-04-10T22:55:46.556Z,-1.52
2019-04-10T22:58:24.645Z,-1.52
2019-04-10T23:01:02.544Z,-1.53
2019-04-10T23:03:36.702Z,-1.56
2019-04-10T23:06:11.046Z,-1.54
2019-04-10T23:08:47.580Z,-1.54
2019-04-10T23:11:31.661Z,-1.53
2019-04-10T23:14:02.611Z,-1.51
2019-04-10T23:16:40.073Z,-1.54
2019-04-10T23:19:18.767Z,-1.58
2019-04-10T23:21:58.234Z,-1.61
2019-04-10T23:24:31.838Z,-1.64
2019-04-10T23:27:06.615Z,-1.69
2019-04-10T23:29:40.214Z,-1.76
2019-04-10T23:32:15.280Z,-1.81
2019-04-10T23:34:53.256Z,-1.86
2019-04-10T23:37:27.038Z,-1.89
2019-04-10T23:40:03.151Z,-1.88
2019-04-10T23:42:39.985Z,-1.85
2019-04-10T23:45:15.586Z,-1.88
2019-04-10T23:47:52.674Z,-1.91
2019-04-10T23:50:26.152Z,-1.96
2019-04-10T23:53:00.984Z,-2.06
2019-04-10T23:55:46.241Z,-2.14
2019-04-10T23:58:19.890Z,-2.22
